Time;durP1;ratioP1;P1;durP2;ratioP2;P2;SDS_P1;SDS_P2;PMS_P1;PMS_P2;Temp;Humidity;BMP_temperature;BMP_pressure;BME280_temperature;BME280_humidity;BME280_pressure;Samples;Min_cycle;Max_cycle;Signal;HPM_P1;HPM_P2
2023/06/23 00:01:22;;;;;;;2.83;2.05;;;;;;;;;;5092277;28;20027;-62
2023/06/23 00:03:49;;;;;;;3.28;2.22;;;;;;;;;;5092084;28;20028;-62
2023/06/23 00:06:16;;;;;;;5.97;3.00;;;;;;;;;;5086825;28;20039;-61
2023/06/23 00:08:43;;;;;;;6.50;3.40;;;;;;;;;;5086802;28;20411;-62
2023/06/23 00:11:10;;;;;;;3.53;2.05;;;;;;;;;;5086508;28;20032;-62
2023/06/23 00:13:40;;;;;;;4.03;2.08;;;;;;;;;;5092116;28;20024;-62
2023/06/23 00:16:07;;;;;;;4.78;2.70;;;;;;;;;;5091309;28;20371;-62
2023/06/23 00:18:39;;;;;;;8.38;3.55;;;;;;;;;;5100941;28;20161;-61
2023/06/23 00:21:07;;;;;;;4.60;3.28;;;;;;;;;;5112180;28;20027;-62
2023/06/23 00:23:34;;;;;;;4.25;3.20;;;;;;;;;;5111728;28;20019;-62
2023/06/23 00:26:01;;;;;;;4.22;3.13;;;;;;;;;;5111692;28;20019;-62
2023/06/23 00:28:28;;;;;;;5.15;2.78;;;;;;;;;;5107624;28;20092;-62
2023/06/23 00:30:55;;;;;;;4.25;2.92;;;;;;;;;;5106614;28;20043;-62
2023/06/23 00:33:22;;;;;;;4.07;2.92;;;;;;;;;;5091592;28;20038;-62
2023/06/23 00:35:49;;;;;;;6.97;3.00;;;;;;;;;;5087793;28;20044;-62
2023/06/23 00:38:15;;;;;;;9.85;3.17;;;;;;;;;;5110489;28;20031;-62
2023/06/23 00:40:42;;;;;;;3.97;3.03;;;;;;;;;;5111632;28;20038;-62
2023/06/23 00:43:09;;;;;;;4.30;3.08;;;;;;;;;;5071635;28;20102;-62
2023/06/23 00:45:36;;;;;;;5.50;3.15;;;;;;;;;;5079467;28;20016;-62
2023/06/23 00:48:06;;;;;;;8.05;3.97;;;;;;;;;;5091644;28;20020;-62
2023/06/23 00:50:33;;;;;;;4.30;3.28;;;;;;;;;;5095327;28;20026;-62
2023/06/23 00:53:00;;;;;;;4.85;3.13;;;;;;;;;;5104956;28;20036;-62
2023/06/23 00:55:28;;;;;;;15.65;3.92;;;;;;;;;;5106360;28;20036;-62
2023/06/23 00:57:56;;;;;;;5.20;3.83;;;;;;;;;;5106562;28;20482;-61
2023/06/23 01:00:25;;;;;;;4.05;2.85;;;;;;;;;;5108085;28;20537;-61
2023/06/23 01:02:53;;;;;;;7.22;3.63;;;;;;;;;;5112291;28;20049;-62
2023/06/23 01:05:20;;;;;;;6.60;3.47;;;;;;;;;;5115538;28;20092;-61
2023/06/23 01:07:50;;;;;;;4.15;2.90;;;;;;;;;;5115117;28;20046;-62
2023/06/23 01:10:21;;;;;;;7.75;4.28;;;;;;;;;;5111909;28;20478;-61
2023/06/23 01:13:00;;;;;;;5.70;3.47;;;;;;;;;;5091770;28;20088;-62
2023/06/23 01:15:31;;;;;;;4.85;3.72;;;;;;;;;;5104201;28;20019;-62
2023/06/23 01:17:58;;;;;;;5.82;3.90;;;;;;;;;;5109669;28;20028;-61
2023/06/23 01:20:29;;;;;;;6.35;4.15;;;;;;;;;;5109687;28;20031;-62
2023/06/23 01:23:11;;;;;;;6.10;4.10;;;;;;;;;;5113039;28;20023;-62
2023/06/23 01:25:53;;;;;;;5.95;3.40;;;;;;;;;;5114584;28;20029;-62
2023/06/23 01:28:19;;;;;;;12.25;4.88;;;;;;;;;;5109849;28;20032;-62
2023/06/23 01:30:48;;;;;;;17.45;4.13;;;;;;;;;;5110586;28;20038;-62
2023/06/23 01:33:18;;;;;;;7.55;4.70;;;;;;;;;;5114643;28;20028;-62
2023/06/23 01:35:48;;;;;;;6.10;4.32;;;;;;;;;;5100418;28;20028;-62
2023/06/23 01:38:23;;;;;;;6.05;4.43;;;;;;;;;;5089552;28;20085;-61
2023/06/23 01:40:52;;;;;;;5.63;4.25;;;;;;;;;;5089250;28;20020;-62
2023/06/23 01:43:29;;;;;;;8.60;4.28;;;;;;;;;;5090534;28;20032;-62
2023/06/23 01:45:59;;;;;;;7.32;3.85;;;;;;;;;;5093598;28;20532;-62
2023/06/23 01:48:26;;;;;;;8.38;5.03;;;;;;;;;;5108300;28;20023;-62
2023/06/23 01:50:54;;;;;;;7.90;3.67;;;;;;;;;;5114553;28;20049;-62
2023/06/23 01:53:21;;;;;;;8.03;4.10;;;;;;;;;;5103097;28;20110;-63
2023/06/23 01:55:49;;;;;;;7.63;4.27;;;;;;;;;;5094516;28;20413;-62
2023/06/23 01:58:19;;;;;;;8.30;4.93;;;;;;;;;;5089617;28;20063;-63
2023/06/23 02:00:46;;;;;;;5.00;3.50;;;;;;;;;;5089113;28;20106;-61
2023/06/23 02:03:14;;;;;;;5.07;4.17;;;;;;;;;;5101073;28;20386;-62
2023/06/23 02:05:41;;;;;;;7.90;4.53;;;;;;;;;;5109344;28;20032;-62
2023/06/23 02:08:08;;;;;;;6.73;4.73;;;;;;;;;;5112838;28;20086;-61
2023/06/23 02:10:36;;;;;;;10.43;5.03;;;;;;;;;;5101577;28;20482;-62
2023/06/23 02:13:04;;;;;;;6.97;4.83;;;;;;;;;;5096743;28;20016;-62
2023/06/23 02:15:31;;;;;;;7.47;5.27;;;;;;;;;;5114302;28;20493;-62
2023/06/23 02:17:59;;;;;;;8.53;5.30;;;;;;;;;;5102170;28;20025;-62
2023/06/23 02:20:28;;;;;;;6.40;4.93;;;;;;;;;;5107892;28;20470;-61
2023/06/23 02:22:56;;;;;;;5.93;4.30;;;;;;;;;;5108860;28;20028;-61
2023/06/23 02:25:23;;;;;;;9.70;4.93;;;;;;;;;;5109012;28;20412;-61
2023/06/23 02:27:50;;;;;;;6.47;3.50;;;;;;;;;;5095031;28;20113;-62
2023/06/23 02:30:18;;;;;;;10.23;6.07;;;;;;;;;;5091754;28;20437;-61
2023/06/23 02:32:47;;;;;;;9.83;5.73;;;;;;;;;;5094762;28;20032;-62
2023/06/23 02:35:14;;;;;;;6.87;4.93;;;;;;;;;;5093743;28;20077;-62
2023/06/23 02:37:42;;;;;;;6.37;4.93;;;;;;;;;;5093709;28;20120;-62
2023/06/23 02:40:15;;;;;;;8.40;5.03;;;;;;;;;;5108756;28;20581;-62
2023/06/23 02:42:47;;;;;;;9.18;6.05;;;;;;;;;;5109198;28;20031;-61
2023/06/23 02:45:16;;;;;;;5.70;4.33;;;;;;;;;;5092026;28;20040;-62
2023/06/23 02:47:44;;;;;;;7.40;5.40;;;;;;;;;;5088118;28;20036;-62
2023/06/23 02:50:12;;;;;;;7.53;5.83;;;;;;;;;;5096965;28;20042;-61
2023/06/23 02:52:42;;;;;;;7.37;5.30;;;;;;;;;;5111147;28;20027;-62
2023/06/23 02:55:10;;;;;;;7.40;5.10;;;;;;;;;;5112585;28;20055;-62
2023/06/23 02:57:38;;;;;;;6.77;5.27;;;;;;;;;;5098160;28;20027;-62
2023/06/23 03:00:17;;;;;;;9.67;5.07;;;;;;;;;;5113291;28;20028;-62
2023/06/23 03:02:45;;;;;;;7.80;5.57;;;;;;;;;;5111544;28;20030;-62
2023/06/23 03:05:11;;;;;;;7.43;5.67;;;;;;;;;;5109635;28;20043;-61
2023/06/23 03:07:38;;;;;;;7.23;5.67;;;;;;;;;;5107511;28;20039;-62
2023/06/23 03:10:08;;;;;;;7.83;5.70;;;;;;;;;;5107777;28;20035;-63
2023/06/23 03:12:35;;;;;;;7.93;5.90;;;;;;;;;;5088519;28;20024;-61
2023/06/23 03:15:02;;;;;;;7.07;5.87;;;;;;;;;;5109343;28;20023;-62
2023/06/23 03:17:31;;;;;;;9.80;6.03;;;;;;;;;;5112780;28;20031;-61
2023/06/23 03:20:14;;;;;;;8.23;6.10;;;;;;;;;;5105214;28;20016;-62
2023/06/23 03:22:44;;;;;;;10.50;4.90;;;;;;;;;;5092685;28;20543;-62
2023/06/23 03:25:15;;;;;;;17.70;5.37;;;;;;;;;;5092273;28;20016;-61
2023/06/23 03:27:43;;;;;;;128.90;12.67;;;;;;;;;;5101121;28;20032;-62
2023/06/23 03:30:13;;;;;;;10.53;6.23;;;;;;;;;;5089341;28;20032;-62
2023/06/23 03:32:43;;;;;;;6.23;4.97;;;;;;;;;;5088493;28;20114;-63
2023/06/23 03:35:14;;;;;;;8.57;6.13;;;;;;;;;;5087283;28;20024;-62
2023/06/23 03:37:46;;;;;;;10.17;6.00;;;;;;;;;;5099346;28;20111;-62
2023/06/23 03:40:14;;;;;;;7.93;5.90;;;;;;;;;;5113498;28;20063;-61
2023/06/23 03:42:44;;;;;;;5.57;4.63;;;;;;;;;;5112544;28;20034;-62
2023/06/23 03:45:13;;;;;;;9.43;5.43;;;;;;;;;;5096641;28;20047;-61
2023/06/23 03:47:41;;;;;;;7.00;5.57;;;;;;;;;;5107774;28;20027;-61
2023/06/23 03:50:12;;;;;;;6.57;5.87;;;;;;;;;;5107885;28;20338;-61
2023/06/23 03:52:40;;;;;;;11.50;6.87;;;;;;;;;;5091466;28;20028;-62
2023/06/23 03:55:08;;;;;;;14.23;6.53;;;;;;;;;;5086493;28;20020;-61
2023/06/23 03:57:36;;;;;;;7.57;5.93;;;;;;;;;;5086896;28;20063;-62
2023/06/23 04:00:03;;;;;;;7.80;5.87;;;;;;;;;;5090296;28;20025;-61
2023/06/23 04:02:31;;;;;;;7.60;6.50;;;;;;;;;;5104077;28;20086;-61
2023/06/23 04:05:00;;;;;;;8.00;5.93;;;;;;;;;;5101077;28;20103;-61
2023/06/23 04:07:28;;;;;;;12.53;6.83;;;;;;;;;;5092003;28;20039;-61
2023/06/23 04:09:56;;;;;;;39.77;7.73;;;;;;;;;;5092173;28;20103;-62
2023/06/23 04:12:24;;;;;;;7.57;5.47;;;;;;;;;;5088343;28;20021;-61
2023/06/23 04:14:52;;;;;;;7.50;5.50;;;;;;;;;;5086959;28;20051;-61
2023/06/23 04:17:20;;;;;;;8.57;5.07;;;;;;;;;;5093077;28;20035;-61
2023/06/23 04:19:49;;;;;;;21.77;6.03;;;;;;;;;;5104309;28;20064;-62
2023/06/23 04:22:18;;;;;;;9.67;6.50;;;;;;;;;;5110019;28;20027;-61
2023/06/23 04:24:46;;;;;;;9.90;8.07;;;;;;;;;;5112189;28;20043;-61
2023/06/23 04:27:16;;;;;;;8.70;6.33;;;;;;;;;;5097251;28;20032;-61
2023/06/23 04:29:45;;;;;;;5.93;5.20;;;;;;;;;;5107310;28;20344;-61
2023/06/23 04:32:13;;;;;;;6.83;5.77;;;;;;;;;;5112182;28;20028;-61
2023/06/23 04:34:40;;;;;;;7.30;6.20;;;;;;;;;;5105421;28;20039;-61
2023/06/23 04:37:16;;;;;;;14.93;8.17;;;;;;;;;;5086743;28;20028;-61
2023/06/23 04:40:00;;;;;;;10.20;7.90;;;;;;;;;;5090042;28;20024;-61
2023/06/23 04:42:32;;;;;;;8.70;6.17;;;;;;;;;;5090725;28;20496;-61
2023/06/23 04:45:01;;;;;;;5.30;4.43;;;;;;;;;;5094201;28;20101;-61
2023/06/23 04:47:31;;;;;;;7.33;5.13;;;;;;;;;;5095668;28;20127;-61
2023/06/23 04:49:59;;;;;;;8.83;6.80;;;;;;;;;;5095921;28;20161;-61
2023/06/23 04:52:27;;;;;;;17.97;6.07;;;;;;;;;;5096609;28;20059;-61
2023/06/23 04:54:59;;;;;;;8.40;6.50;;;;;;;;;;5110156;28;20486;-61
2023/06/23 04:57:28;;;;;;;7.23;6.03;;;;;;;;;;5091187;28;20052;-61
2023/06/23 04:59:59;;;;;;;10.60;7.53;;;;;;;;;;5090324;28;20020;-61
2023/06/23 05:02:27;;;;;;;26.60;8.17;;;;;;;;;;5090052;28;20028;-61
2023/06/23 05:04:54;;;;;;;9.50;7.00;;;;;;;;;;5094923;28;20032;-61
2023/06/23 05:07:22;;;;;;;17.37;9.33;;;;;;;;;;5113106;28;20493;-61
2023/06/23 05:09:50;;;;;;;7.97;7.13;;;;;;;;;;5115503;28;20382;-61
2023/06/23 05:12:18;;;;;;;9.77;7.20;;;;;;;;;;5115779;28;20465;-61
2023/06/23 05:14:47;;;;;;;8.77;6.17;;;;;;;;;;5105527;28;20024;-61
2023/06/23 05:17:14;;;;;;;7.60;6.53;;;;;;;;;;5095199;28;20040;-61
2023/06/23 05:19:45;;;;;;;11.10;7.30;;;;;;;;;;5094077;28;20374;-61
2023/06/23 05:22:14;;;;;;;8.20;6.77;;;;;;;;;;5105409;28;20024;-61
2023/06/23 05:24:44;;;;;;;13.30;7.67;;;;;;;;;;5089435;28;20058;-62
2023/06/23 05:27:11;;;;;;;8.50;5.80;;;;;;;;;;5089869;28;20028;-62
2023/06/23 05:29:43;;;;;;;19.73;7.87;;;;;;;;;;5093228;28;20093;-60
2023/06/23 05:32:11;;;;;;;10.57;7.67;;;;;;;;;;5094880;28;20020;-61
2023/06/23 05:34:38;;;;;;;9.00;7.20;;;;;;;;;;5095263;28;20401;-61
2023/06/23 05:37:06;;;;;;;12.20;7.03;;;;;;;;;;5093256;28;20089;-58
2023/06/23 05:39:35;;;;;;;12.10;6.80;;;;;;;;;;5089597;28;20051;-59
2023/06/23 05:42:02;;;;;;;10.33;7.63;;;;;;;;;;5089949;28;20032;-60
2023/06/23 05:44:29;;;;;;;6.63;5.33;;;;;;;;;;5087439;28;20167;-61
2023/06/23 05:46:58;;;;;;;7.53;5.27;;;;;;;;;;5088704;28;20039;-59
2023/06/23 05:49:26;;;;;;;7.00;5.60;;;;;;;;;;5088570;28;20051;-60
2023/06/23 05:51:59;;;;;;;8.70;6.23;;;;;;;;;;5091541;28;20058;-59
2023/06/23 05:54:27;;;;;;;5.27;3.47;;;;;;;;;;5093590;28;20485;-58
2023/06/23 05:56:57;;;;;;;3.90;2.80;;;;;;;;;;5094078;28;20386;-59
2023/06/23 05:59:24;;;;;;;3.60;2.77;;;;;;;;;;5099520;28;20024;-59
2023/06/23 06:01:54;;;;;;;10.20;3.07;;;;;;;;;;5114470;28;20059;-58
2023/06/23 06:04:21;;;;;;;3.57;2.50;;;;;;;;;;5110716;28;20062;-58
2023/06/23 06:06:49;;;;;;;4.00;2.77;;;;;;;;;;5109041;28;20647;-59
2023/06/23 06:09:16;;;;;;;4.40;2.73;;;;;;;;;;5108796;28;20035;-59
2023/06/23 06:11:44;;;;;;;3.27;2.40;;;;;;;;;;5109016;28;20024;-58
2023/06/23 06:14:11;;;;;;;3.43;2.43;;;;;;;;;;5098597;28;20093;-58
2023/06/23 06:16:39;;;;;;;6.87;2.43;;;;;;;;;;5097122;28;20092;-59
2023/06/23 06:19:06;;;;;;;4.10;2.90;;;;;;;;;;5114330;28;20404;-59
2023/06/23 06:21:34;;;;;;;7.03;2.90;;;;;;;;;;5114066;28;20023;-59
2023/06/23 06:24:01;;;;;;;7.77;2.77;;;;;;;;;;5112681;28;20023;-59
2023/06/23 06:26:28;;;;;;;2.03;1.67;;;;;;;;;;5091707;28;20027;-59
2023/06/23 06:28:56;;;;;;;3.80;2.17;;;;;;;;;;5094298;28;20035;-59
2023/06/23 06:31:23;;;;;;;3.57;2.40;;;;;;;;;;5106572;28;20313;-59
2023/06/23 06:33:52;;;;;;;3.00;1.70;;;;;;;;;;5088470;28;20407;-59
2023/06/23 06:36:20;;;;;;;3.40;1.80;;;;;;;;;;5090729;28;20040;-59
2023/06/23 06:38:49;;;;;;;2.87;2.17;;;;;;;;;;5093831;28;20470;-59
2023/06/23 06:41:16;;;;;;;4.67;2.57;;;;;;;;;;5113948;28;20497;-59
2023/06/23 06:43:44;;;;;;;3.53;2.20;;;;;;;;;;5097192;28;20032;-59
2023/06/23 06:46:13;;;;;;;2.77;2.10;;;;;;;;;;5113314;28;20035;-60
2023/06/23 06:48:41;;;;;;;3.67;3.03;;;;;;;;;;5111334;28;20374;-59
2023/06/23 06:51:08;;;;;;;4.13;2.33;;;;;;;;;;5107986;28;20024;-59
2023/06/23 06:53:36;;;;;;;4.93;3.27;;;;;;;;;;5108523;28;20037;-58
2023/06/23 06:56:03;;;;;;;9.97;4.73;;;;;;;;;;5108428;28;20024;-59
2023/06/23 06:58:30;;;;;;;10.10;6.00;;;;;;;;;;5109676;28;20016;-58
2023/06/23 07:00:58;;;;;;;8.80;6.10;;;;;;;;;;5101021;28;20070;-58
2023/06/23 07:03:26;;;;;;;9.10;6.07;;;;;;;;;;5093131;28;20020;-59
2023/06/23 07:05:53;;;;;;;9.07;6.10;;;;;;;;;;5093039;28;20538;-59
2023/06/23 07:08:20;;;;;;;8.63;5.33;;;;;;;;;;5092873;28;20539;-59
2023/06/23 07:10:46;;;;;;;5.33;3.97;;;;;;;;;;5090600;28;20382;-60
2023/06/23 07:13:13;;;;;;;10.87;5.17;;;;;;;;;;5100139;28;20783;-58
2023/06/23 07:15:40;;;;;;;4.30;3.23;;;;;;;;;;5094897;28;20081;-59
2023/06/23 07:18:07;;;;;;;6.37;4.73;;;;;;;;;;5096552;28;20050;-59
2023/06/23 07:20:33;;;;;;;8.37;5.67;;;;;;;;;;5108915;28;20474;-58
2023/06/23 07:23:00;;;;;;;7.63;4.83;;;;;;;;;;5112700;28;20028;-59
2023/06/23 07:25:27;;;;;;;5.93;3.97;;;;;;;;;;5112848;28;20026;-59
2023/06/23 07:27:54;;;;;;;9.23;5.63;;;;;;;;;;5112955;28;20037;-58
2023/06/23 07:30:21;;;;;;;7.20;3.40;;;;;;;;;;5112660;28;20020;-59
2023/06/23 07:32:47;;;;;;;5.97;4.43;;;;;;;;;;5111281;28;20031;-59
2023/06/23 07:35:14;;;;;;;5.27;4.30;;;;;;;;;;5107181;28;20024;-59
2023/06/23 07:37:41;;;;;;;6.80;4.47;;;;;;;;;;5071272;28;20470;-58
2023/06/23 07:40:08;;;;;;;5.53;4.30;;;;;;;;;;5087283;28;20031;-59
2023/06/23 07:42:35;;;;;;;8.10;3.60;;;;;;;;;;5088605;28;20024;-59
2023/06/23 07:45:02;;;;;;;7.10;4.07;;;;;;;;;;5092498;28;20375;-59
2023/06/23 07:47:29;;;;;;;6.30;3.77;;;;;;;;;;5092196;28;20091;-58
2023/06/23 07:49:56;;;;;;;5.33;4.17;;;;;;;;;;5105764;28;20023;-58
2023/06/23 07:52:23;;;;;;;10.33;4.27;;;;;;;;;;5112298;28;20031;-59
2023/06/23 07:54:50;;;;;;;5.77;3.73;;;;;;;;;;5111697;28;20543;-59
2023/06/23 07:57:17;;;;;;;5.17;4.10;;;;;;;;;;5106981;28;20036;-59
2023/06/23 07:59:43;;;;;;;4.57;3.00;;;;;;;;;;5082953;28;20104;-59
2023/06/23 08:02:10;;;;;;;5.43;3.77;;;;;;;;;;5076310;28;20032;-59
2023/06/23 08:04:37;;;;;;;7.13;4.10;;;;;;;;;;5087099;28;20107;-58
2023/06/23 08:07:04;;;;;;;5.70;4.10;;;;;;;;;;5098757;28;20031;-59
2023/06/23 08:09:31;;;;;;;3.83;3.10;;;;;;;;;;5112587;28;20032;-59
2023/06/23 08:11:57;;;;;;;9.43;4.97;;;;;;;;;;5112647;28;20038;-59
2023/06/23 08:14:24;;;;;;;4.93;3.20;;;;;;;;;;5105965;28;20028;-58
2023/06/23 08:16:51;;;;;;;6.83;4.03;;;;;;;;;;5096091;28;20064;-59
2023/06/23 08:19:21;;;;;;;5.37;3.97;;;;;;;;;;5096407;28;20085;-59
2023/06/23 08:21:51;;;;;;;5.50;3.83;;;;;;;;;;5098992;28;20039;-58
2023/06/23 08:24:17;;;;;;;5.27;3.83;;;;;;;;;;5092222;28;20106;-59
2023/06/23 08:26:47;;;;;;;5.20;3.47;;;;;;;;;;5108468;28;20107;-59
2023/06/23 08:29:14;;;;;;;5.57;3.40;;;;;;;;;;5115821;28;20026;-58
2023/06/23 08:31:41;;;;;;;4.07;3.40;;;;;;;;;;5111598;28;20497;-58
2023/06/23 08:34:07;;;;;;;8.37;2.73;;;;;;;;;;5095877;28;20386;-58
2023/06/23 08:36:34;;;;;;;3.73;3.03;;;;;;;;;;5095911;28;20472;-58
2023/06/23 08:39:01;;;;;;;4.40;3.07;;;;;;;;;;5096007;28;20381;-59
2023/06/23 08:41:30;;;;;;;4.43;3.27;;;;;;;;;;5093732;28;20040;-59
2023/06/23 08:44:01;;;;;;;8.03;4.53;;;;;;;;;;5111082;28;20024;-59
2023/06/23 08:46:31;;;;;;;4.77;3.63;;;;;;;;;;5092882;27;20374;-59
2023/06/23 08:49:03;;;;;;;6.07;3.63;;;;;;;;;;5109427;28;20039;-58
2023/06/23 08:51:30;;;;;;;12.43;4.63;;;;;;;;;;5114790;28;20023;-58
2023/06/23 08:53:57;;;;;;;5.53;3.97;;;;;;;;;;5105195;28;20088;-58
2023/06/23 08:56:24;;;;;;;3.60;2.90;;;;;;;;;;5095469;28;20028;-58
2023/06/23 08:58:51;;;;;;;5.93;4.53;;;;;;;;;;5112166;28;20032;-59
2023/06/23 09:01:17;;;;;;;5.60;5.00;;;;;;;;;;5095177;28;20026;-59
2023/06/23 09:03:44;;;;;;;5.63;4.70;;;;;;;;;;5095463;28;20030;-59
2023/06/23 09:06:12;;;;;;;6.40;4.63;;;;;;;;;;5110199;28;20027;-58
2023/06/23 09:08:39;;;;;;;6.30;5.13;;;;;;;;;;5105139;28;20055;-59
2023/06/23 09:11:06;;;;;;;6.23;4.97;;;;;;;;;;5094451;28;20031;-59
2023/06/23 09:13:36;;;;;;;10.63;4.97;;;;;;;;;;5108986;28;20028;-58
2023/06/23 09:16:03;;;;;;;5.63;4.00;;;;;;;;;;5095271;28;20032;-58
2023/06/23 09:18:38;;;;;;;6.27;4.90;;;;;;;;;;5095862;28;20055;-58
2023/06/23 09:21:05;;;;;;;;;;;;;;;;;;5111304;28;20039;-58
2023/06/23 09:23:32;;;;;;;6.03;5.17;;;;;;;;;;5113122;28;19961;-59
2023/06/23 09:25:59;;;;;;;11.00;3.87;;;;;;;;;;5092102;28;20043;-58
2023/06/23 09:28:27;;;;;;;8.77;5.50;;;;;;;;;;5089750;28;20034;-58
2023/06/23 09:30:56;;;;;;;5.90;4.00;;;;;;;;;;5092494;28;20582;-58
2023/06/23 09:33:23;;;;;;;4.97;3.83;;;;;;;;;;5102718;28;20059;-58
2023/06/23 09:35:56;;;;;;;6.90;5.07;;;;;;;;;;5092855;28;20390;-58
2023/06/23 09:38:24;;;;;;;8.80;6.17;;;;;;;;;;5094862;28;20099;-58
2023/06/23 09:41:09;;;;;;;5.20;3.43;;;;;;;;;;5108901;28;20028;-58
2023/06/23 09:43:42;;;;;;;6.28;4.45;;;;;;;;;;5115028;28;20115;-58
2023/06/23 09:46:10;;;;;;;8.57;6.70;;;;;;;;;;5114685;28;20039;-58
2023/06/23 09:48:37;;;;;;;8.50;5.37;;;;;;;;;;5109649;28;20054;-59
2023/06/23 09:51:05;;;;;;;7.13;5.20;;;;;;;;;;5105452;28;20016;-59
2023/06/23 09:53:35;;;;;;;10.90;6.93;;;;;;;;;;5089292;28;20020;-58
2023/06/23 09:56:03;;;;;;;8.47;6.03;;;;;;;;;;5089112;28;20047;-58
2023/06/23 09:58:33;;;;;;;9.33;6.57;;;;;;;;;;5091972;28;20552;-58
2023/06/23 10:01:04;;;;;;;8.67;6.77;;;;;;;;;;5103405;28;20020;-58
2023/06/23 10:03:31;;;;;;;8.33;6.87;;;;;;;;;;5114560;28;20043;-58
2023/06/23 10:06:00;;;;;;;9.67;7.03;;;;;;;;;;5114586;28;20020;-58
2023/06/23 10:08:27;;;;;;;8.80;7.37;;;;;;;;;;5114505;28;20110;-58
2023/06/23 10:10:54;;;;;;;6.87;5.70;;;;;;;;;;5109239;28;20429;-59
2023/06/23 10:13:22;;;;;;;10.07;6.93;;;;;;;;;;5106985;28;20051;-58
2023/06/23 10:15:49;;;;;;;8.03;5.60;;;;;;;;;;5088448;28;20023;-58
2023/06/23 10:18:16;;;;;;;8.47;5.40;;;;;;;;;;5088639;28;20028;-58
2023/06/23 10:20:43;;;;;;;7.73;6.57;;;;;;;;;;5092781;28;20324;-58
2023/06/23 10:23:11;;;;;;;5.93;5.27;;;;;;;;;;5095087;28;20093;-58
2023/06/23 10:25:38;;;;;;;4.73;3.83;;;;;;;;;;5113956;28;20513;-58
2023/06/23 10:28:08;;;;;;;13.40;6.33;;;;;;;;;;5077673;28;20042;-58
2023/06/23 10:30:35;;;;;;;8.40;4.97;;;;;;;;;;5093780;28;20054;-59
2023/06/23 10:33:03;;;;;;;6.40;4.63;;;;;;;;;;5093572;28;20050;-58
2023/06/23 10:35:31;;;;;;;7.60;5.97;;;;;;;;;;5107196;28;20735;-59
2023/06/23 10:38:05;;;;;;;10.17;5.53;;;;;;;;;;5105828;28;20035;-58
2023/06/23 10:40:38;;;;;;;8.87;6.60;;;;;;;;;;5088204;28;20027;-59
2023/06/23 10:43:07;;;;;;;5.10;4.37;;;;;;;;;;5092176;28;20032;-58
2023/06/23 10:45:34;;;;;;;13.03;6.63;;;;;;;;;;5093125;28;20036;-58
2023/06/23 10:48:01;;;;;;;6.43;5.30;;;;;;;;;;5109899;28;20127;-58
2023/06/23 10:50:29;;;;;;;5.60;4.83;;;;;;;;;;5113918;28;20032;-58
2023/06/23 10:53:16;;;;;;;7.00;6.07;;;;;;;;;;5113230;28;20031;-58
2023/06/23 10:55:44;;;;;;;11.37;6.73;;;;;;;;;;5108254;28;20409;-58
2023/06/23 10:58:18;;;;;;;9.13;6.60;;;;;;;;;;5094829;28;20406;-58
2023/06/23 11:00:46;;;;;;;7.73;6.17;;;;;;;;;;5087988;28;20031;-58
2023/06/23 11:03:27;;;;;;;9.07;5.83;;;;;;;;;;5087916;28;20020;-58
2023/06/23 11:05:57;;;;;;;8.27;6.10;;;;;;;;;;5092909;28;20016;-58
2023/06/23 11:08:28;;;;;;;6.80;5.77;;;;;;;;;;5093180;28;20028;-58
2023/06/23 11:10:59;;;;;;;7.57;4.10;;;;;;;;;;5110797;28;20062;-59
2023/06/23 11:13:34;;;;;;;5.67;4.87;;;;;;;;;;5108096;28;20027;-59
2023/06/23 11:16:01;;;;;;;5.15;4.47;;;;;;;;;;5092395;28;20035;-58
2023/06/23 11:18:28;;;;;;;7.67;5.27;;;;;;;;;;5105409;28;20027;-58
2023/06/23 11:20:56;;;;;;;8.40;6.17;;;;;;;;;;5107808;28;20027;-58
2023/06/23 11:23:22;;;;;;;7.20;5.97;;;;;;;;;;5107694;28;20016;-58
2023/06/23 11:25:51;;;;;;;7.67;4.10;;;;;;;;;;5090713;28;20437;-58
2023/06/23 11:28:33;;;;;;;9.80;4.67;;;;;;;;;;5092640;28;20557;-58
2023/06/23 11:31:15;;;;;;;10.10;6.67;;;;;;;;;;5092755;28;20085;-58
2023/06/23 11:33:46;;;;;;;7.70;5.47;;;;;;;;;;5092467;28;20032;-58
2023/06/23 11:36:15;;;;;;;3.77;3.33;;;;;;;;;;5092548;28;20039;-58
2023/06/23 11:38:43;;;;;;;9.73;6.60;;;;;;;;;;5091361;28;20020;-58
2023/06/23 11:41:11;;;;;;;4.53;3.63;;;;;;;;;;5087227;28;20028;-58
2023/06/23 11:43:45;;;;;;;6.50;5.33;;;;;;;;;;5087080;28;20055;-58
2023/06/23 11:46:12;;;;;;;8.02;5.18;;;;;;;;;;5087128;28;20067;-58
2023/06/23 11:48:40;;;;;;;8.43;5.80;;;;;;;;;;5090072;28;20057;-58
2023/06/23 11:51:08;;;;;;;8.13;5.80;;;;;;;;;;5105897;28;20553;-58
2023/06/23 11:53:35;;;;;;;6.30;5.07;;;;;;;;;;5092384;28;20039;-58
2023/06/23 11:56:03;;;;;;;7.20;5.60;;;;;;;;;;5092179;28;20062;-58
2023/06/23 11:58:32;;;;;;;5.33;4.43;;;;;;;;;;5097735;28;20020;-59
2023/06/23 12:00:59;;;;;;;6.03;4.47;;;;;;;;;;5079093;28;20029;-58
2023/06/23 12:03:27;;;;;;;4.77;3.80;;;;;;;;;;5084549;28;20020;-58
2023/06/23 12:05:54;;;;;;;8.23;5.40;;;;;;;;;;5087169;28;20040;-58
2023/06/23 12:08:27;;;;;;;9.83;5.67;;;;;;;;;;5086889;28;20068;-58
2023/06/23 12:10:54;;;;;;;7.87;6.30;;;;;;;;;;5087384;28;20028;-58
2023/06/23 12:13:21;;;;;;;7.17;5.63;;;;;;;;;;5093378;28;20359;-58
2023/06/23 12:15:48;;;;;;;7.03;4.77;;;;;;;;;;5111867;28;20462;-58
2023/06/23 12:18:15;;;;;;;5.77;4.20;;;;;;;;;;5112112;28;20114;-58
2023/06/23 12:20:43;;;;;;;4.20;2.90;;;;;;;;;;5111953;28;20028;-58
2023/06/23 12:23:11;;;;;;;9.90;6.37;;;;;;;;;;5111637;28;20099;-58
2023/06/23 12:25:44;;;;;;;32.00;6.43;;;;;;;;;;5092441;28;20107;-58
2023/06/23 12:28:15;;;;;;;6.03;4.10;;;;;;;;;;5097647;28;20558;-57
2023/06/23 12:30:46;;;;;;;5.33;4.13;;;;;;;;;;5087850;28;20024;-58
2023/06/23 12:33:13;;;;;;;6.47;5.30;;;;;;;;;;5098403;28;20070;-58
2023/06/23 12:35:40;;;;;;;4.47;3.40;;;;;;;;;;5111900;28;20474;-57
2023/06/23 12:38:08;;;;;;;6.97;5.33;;;;;;;;;;5112474;28;20055;-57
2023/06/23 12:40:35;;;;;;;4.13;3.47;;;;;;;;;;5111846;28;20100;-57
2023/06/23 12:43:04;;;;;;;4.27;3.57;;;;;;;;;;5112399;28;20020;-57
2023/06/23 12:45:32;;;;;;;10.13;4.30;;;;;;;;;;5111432;28;20405;-58
2023/06/23 12:48:01;;;;;;;9.47;6.57;;;;;;;;;;5106475;28;20063;-57
2023/06/23 12:50:28;;;;;;;13.43;6.20;;;;;;;;;;5106439;28;20648;-58
2023/06/23 12:52:58;;;;;;;5.93;4.67;;;;;;;;;;5106961;28;20497;-58
2023/06/23 12:55:25;;;;;;;7.87;5.77;;;;;;;;;;5094392;28;20072;-58
2023/06/23 12:57:53;;;;;;;7.23;5.80;;;;;;;;;;5104093;28;20067;-57
2023/06/23 13:00:21;;;;;;;8.17;6.13;;;;;;;;;;5114143;28;20024;-57
2023/06/23 13:02:49;;;;;;;10.00;6.20;;;;;;;;;;5115747;28;20036;-58
2023/06/23 13:05:16;;;;;;;6.27;4.93;;;;;;;;;;5115043;28;20419;-57
2023/06/23 13:07:43;;;;;;;6.97;5.97;;;;;;;;;;5114994;28;20035;-57
2023/06/23 13:10:10;;;;;;;6.30;4.97;;;;;;;;;;5109651;28;20070;-58
2023/06/23 13:12:37;;;;;;;27.77;4.03;;;;;;;;;;5110021;28;20378;-58
2023/06/23 13:15:04;;;;;;;10.37;6.00;;;;;;;;;;5092548;28;20441;-58
2023/06/23 13:17:34;;;;;;;9.57;6.60;;;;;;;;;;5102373;28;20490;-58
2023/06/23 13:20:01;;;;;;;6.57;4.80;;;;;;;;;;5095202;28;20032;-58
2023/06/23 13:22:28;;;;;;;5.87;4.60;;;;;;;;;;5094994;28;20055;-57
2023/06/23 13:24:58;;;;;;;3.77;3.20;;;;;;;;;;5095101;28;20154;-57
2023/06/23 13:27:25;;;;;;;5.57;4.70;;;;;;;;;;5094902;28;20035;-58
2023/06/23 13:29:52;;;;;;;9.03;6.23;;;;;;;;;;5094955;28;20031;-58
2023/06/23 13:32:19;;;;;;;10.13;5.03;;;;;;;;;;5089667;28;20035;-57
2023/06/23 13:34:46;;;;;;;5.77;4.97;;;;;;;;;;5107384;28;20381;-57
2023/06/23 13:37:13;;;;;;;7.50;5.70;;;;;;;;;;5109456;28;20126;-58
2023/06/23 13:39:40;;;;;;;8.00;5.40;;;;;;;;;;5109087;28;20469;-57
2023/06/23 13:42:07;;;;;;;8.27;5.67;;;;;;;;;;5114495;28;20035;-57
2023/06/23 13:44:33;;;;;;;5.33;4.60;;;;;;;;;;5114735;28;20027;-58
2023/06/23 13:47:01;;;;;;;7.30;4.53;;;;;;;;;;5115217;28;20123;-58
2023/06/23 13:49:27;;;;;;;5.57;3.80;;;;;;;;;;5114731;28;20035;-58
2023/06/23 13:51:54;;;;;;;6.50;4.40;;;;;;;;;;5114331;28;20382;-58
2023/06/23 13:54:23;;;;;;;7.33;5.23;;;;;;;;;;5109627;28;20019;-59
2023/06/23 13:56:50;;;;;;;8.23;4.43;;;;;;;;;;5109051;28;20092;-58
2023/06/23 13:59:16;;;;;;;5.90;4.73;;;;;;;;;;5106692;28;20158;-58
2023/06/23 14:01:43;;;;;;;6.60;4.80;;;;;;;;;;5083999;28;20473;-58
2023/06/23 14:04:10;;;;;;;6.27;5.40;;;;;;;;;;5094022;28;20034;-58
2023/06/23 14:06:37;;;;;;;8.13;5.73;;;;;;;;;;5094121;28;20117;-58
2023/06/23 14:09:05;;;;;;;8.10;5.40;;;;;;;;;;5094430;28;20378;-58
2023/06/23 14:11:31;;;;;;;8.30;4.97;;;;;;;;;;5093803;28;20024;-58
2023/06/23 14:13:58;;;;;;;5.20;3.90;;;;;;;;;;5094035;28;20024;-59
2023/06/23 14:16:25;;;;;;;4.63;3.37;;;;;;;;;;5106192;28;20367;-59
2023/06/23 14:18:52;;;;;;;10.73;4.40;;;;;;;;;;5108282;28;20032;-58
2023/06/23 14:21:19;;;;;;;5.90;4.40;;;;;;;;;;5099012;28;20028;-58
2023/06/23 14:23:45;;;;;;;12.17;5.10;;;;;;;;;;5097789;28;20111;-59
2023/06/23 14:26:12;;;;;;;6.90;4.83;;;;;;;;;;5094606;28;20020;-58
2023/06/23 14:28:39;;;;;;;6.13;4.60;;;;;;;;;;5093785;28;20018;-58
2023/06/23 14:31:07;;;;;;;11.40;5.17;;;;;;;;;;5093473;28;20073;-58
2023/06/23 14:33:34;;;;;;;6.43;4.07;;;;;;;;;;5093665;28;20028;-58
2023/06/23 14:36:01;;;;;;;6.47;3.60;;;;;;;;;;5092664;28;20032;-58
2023/06/23 14:38:28;;;;;;;5.30;4.70;;;;;;;;;;5090365;28;20028;-58
2023/06/23 14:40:55;;;;;;;16.90;11.87;;;;;;;;;;5102131;28;20414;-59
2023/06/23 14:43:22;;;;;;;7.37;5.20;;;;;;;;;;5108380;28;20027;-58
2023/06/23 14:45:50;;;;;;;7.33;5.90;;;;;;;;;;5108000;28;20106;-58
2023/06/23 14:48:17;;;;;;;11.43;6.33;;;;;;;;;;5110394;28;20024;-60